Time;durP1;ratioP1;P1;durP2;ratioP2;P2;SDS_P1;SDS_P2;PMS_P1;PMS_P2;Temp;Humidity;BMP_temperature;BMP_pressure;BME280_temperature;BME280_humidity;BME280_pressure;Samples;Min_cycle;Max_cycle;Signal;HPM_P1;HPM_P2
2023/04/03 00:00:22;;;;;;;72.38;66.07;;;11.90;99.90;;;;;;5247258;28;20042;-72
2023/04/03 00:02:53;;;;;;;74.18;67.53;;;12.00;99.90;;;;;;5247114;28;20029;-72
2023/04/03 00:05:25;;;;;;;76.68;69.82;;;12.20;99.90;;;;;;5247345;28;20033;-72
2023/04/03 00:07:56;;;;;;;76.68;69.63;;;12.20;99.90;;;;;;5247341;28;20037;-72
2023/04/03 00:10:26;;;;;;;69.18;62.67;;;12.10;99.90;;;;;;5247174;28;20077;-72
2023/04/03 00:12:57;;;;;;;73.90;67.30;;;11.90;99.90;;;;;;5247255;28;20016;-72
2023/04/03 00:15:28;;;;;;;76.63;69.82;;;11.80;99.90;;;;;;5247122;28;20047;-72
2023/04/03 00:17:59;;;;;;;80.78;73.78;;;11.90;99.90;;;;;;5247151;28;20024;-72
2023/04/03 00:20:30;;;;;;;77.32;70.72;;;12.00;99.90;;;;;;5247225;28;20100;-72
2023/04/03 00:23:01;;;;;;;77.88;70.72;;;12.00;99.90;;;;;;5246974;28;20024;-72
2023/04/03 00:25:32;;;;;;;68.43;62.35;;;11.90;99.90;;;;;;5245560;28;20473;-72
2023/04/03 00:28:04;;;;;;;66.70;60.92;;;11.40;99.90;;;;;;5245692;28;20033;-72
2023/04/03 00:30:35;;;;;;;63.78;58.58;;;11.50;99.90;;;;;;5246789;28;20497;-72
2023/04/03 00:33:06;;;;;;;64.18;58.78;;;11.30;99.90;;;;;;5246842;28;20028;-72
2023/04/03 00:35:37;;;;;;;62.08;56.17;;;11.40;99.90;;;;;;5246811;28;20033;-72
2023/04/03 00:38:09;;;;;;;71.55;64.85;;;11.50;99.90;;;;;;5246840;28;20025;-72
2023/04/03 00:40:43;;;;;;;65.70;59.80;;;11.40;99.90;;;;;;5246675;28;20024;-73
2023/04/03 00:43:21;;;;;;;66.25;60.80;;;11.50;99.90;;;;;;5246786;28;20060;-73
2023/04/03 00:46:01;;;;;;;63.08;57.92;;;11.50;99.90;;;;;;5249050;28;20020;-72
2023/04/03 00:48:42;;;;;;;66.85;60.85;;;11.30;99.90;;;;;;5249319;28;20602;-73
2023/04/03 00:51:17;;;;;;;67.30;61.33;;;11.40;99.90;;;;;;5249321;28;20056;-73
2023/04/03 00:53:56;;;;;;;66.75;61.08;;;11.10;99.90;;;;;;5250574;28;20086;-72
2023/04/03 00:56:29;;;;;;;64.97;59.35;;;11.30;99.90;;;;;;5250341;28;20057;-73
2023/04/03 00:59:14;;;;;;;69.45;63.42;;;11.20;99.90;;;;;;5250471;28;20021;-73
2023/04/03 01:01:45;;;;;;;63.75;58.22;;;11.10;99.90;;;;;;5250422;28;20024;-73
2023/04/03 01:04:47;;;;;;;65.78;59.97;;;10.80;99.90;;;;;;5250310;28;20031;-73
2023/04/03 01:07:21;;;;;;;69.13;62.30;;;10.70;99.90;;;;;;5241618;28;20076;-73
2023/04/03 01:09:56;;;;;;;65.15;59.45;;;10.80;99.90;;;;;;5250106;28;20028;-72
2023/04/03 01:12:39;;;;;;;66.05;60.13;;;10.50;99.90;;;;;;5250170;28;20662;-70
2023/04/03 01:15:13;;;;;;;66.10;60.67;;;10.40;99.90;;;;;;5250361;28;20032;-72
2023/04/03 01:17:48;;;;;;;62.00;56.35;;;10.40;99.90;;;;;;5250324;28;20026;-73
2023/04/03 01:20:30;;;;;;;58.40;53.40;;;10.70;99.90;;;;;;5250210;28;20078;-73
2023/04/03 01:23:10;;;;;;;60.80;55.47;;;10.70;99.90;;;;;;5248765;28;20020;-73
2023/04/03 01:25:50;;;;;;;62.15;56.47;;;10.50;99.90;;;;;;5249770;28;20024;-71
2023/04/03 01:28:23;;;;;;;59.60;54.47;;;10.40;99.90;;;;;;5249954;28;20040;-72
2023/04/03 01:31:05;;;;;;;63.70;58.28;;;10.40;99.90;;;;;;5249912;28;20024;-73
2023/04/03 01:33:37;;;;;;;62.42;56.60;;;10.50;99.90;;;;;;5249761;28;20021;-73
2023/04/03 01:36:09;;;;;;;64.28;58.78;;;10.70;99.90;;;;;;5249595;28;20025;-73
2023/04/03 01:38:40;;;;;;;61.33;55.75;;;10.20;99.90;;;;;;5249960;28;20020;-73
2023/04/03 01:41:11;;;;;;;57.90;53.03;;;10.30;99.90;;;;;;5249827;28;20361;-72
2023/04/03 01:43:42;;;;;;;61.97;56.47;;;10.30;99.90;;;;;;5249790;28;20025;-72
2023/04/03 01:46:13;;;;;;;58.40;53.30;;;10.20;99.90;;;;;;5249389;28;20028;-72
2023/04/03 01:48:44;;;;;;;58.00;53.03;;;10.40;99.90;;;;;;5249541;28;20024;-72
2023/04/03 01:51:15;;;;;;;59.67;54.20;;;10.50;99.90;;;;;;5248034;28;20545;-73
2023/04/03 01:53:46;;;;;;;58.33;53.33;;;10.40;99.90;;;;;;5248087;28;20029;-72
2023/04/03 01:56:16;;;;;;;59.60;54.47;;;10.40;99.90;;;;;;5248785;28;20504;-72
2023/04/03 01:58:47;;;;;;;60.95;55.72;;;10.40;99.90;;;;;;5249303;28;20525;-72
2023/04/03 02:01:18;;;;;;;55.75;50.60;;;10.20;99.90;;;;;;5249368;28;20020;-72
2023/04/03 02:03:49;;;;;;;60.38;55.00;;;10.20;99.90;;;;;;5249210;28;20024;-72
2023/04/03 02:06:20;;;;;;;59.17;54.38;;;10.00;99.90;;;;;;5248964;28;20078;-68
2023/04/03 02:08:51;;;;;;;61.30;56.13;;;10.20;99.90;;;;;;5249012;28;20326;-73
2023/04/03 02:11:21;;;;;;;58.40;53.78;;;10.10;99.90;;;;;;5249100;28;20078;-73
2023/04/03 02:13:52;;;;;;;56.78;52.05;;;10.20;99.90;;;;;;5248960;28;20055;-73
2023/04/03 02:16:23;;;;;;;62.15;57.05;;;10.10;99.90;;;;;;5249003;28;20020;-72
2023/04/03 02:18:54;;;;;;;57.45;53.08;;;10.00;99.90;;;;;;5248878;28;20107;-72
2023/04/03 02:21:25;;;;;;;61.70;56.45;;;10.10;99.90;;;;;;5248733;28;20032;-72
2023/04/03 02:23:56;;;;;;;61.75;56.67;;;9.80;99.90;;;;;;5248838;28;20091;-72
2023/04/03 02:26:27;;;;;;;58.17;53.60;;;9.90;99.90;;;;;;5249100;28;20045;-73
2023/04/03 02:28:57;;;;;;;60.88;55.90;;;10.00;99.90;;;;;;5248800;28;20024;-73
2023/04/03 02:31:28;;;;;;;60.42;55.40;;;9.90;99.90;;;;;;5248815;28;20119;-72
2023/04/03 02:33:59;;;;;;;66.32;61.13;;;9.60;99.90;;;;;;5248519;28;20376;-72
2023/04/03 02:36:30;;;;;;;63.88;58.58;;;9.50;99.90;;;;;;5248442;28;20460;-72
2023/04/03 02:39:01;;;;;;;67.57;62.35;;;9.60;99.90;;;;;;5248487;28;20039;-72
2023/04/03 02:41:35;;;;;;;67.22;61.70;;;9.70;99.90;;;;;;5248433;28;20085;-73
2023/04/03 02:44:09;;;;;;;60.40;55.72;;;9.40;99.90;;;;;;5247955;28;20021;-73
2023/04/03 02:46:40;;;;;;;61.50;56.38;;;9.60;99.90;;;;;;5248123;28;20365;-72
2023/04/03 02:49:11;;;;;;;66.18;60.92;;;9.70;99.90;;;;;;5248251;28;20012;-67
2023/04/03 02:51:42;;;;;;;61.38;56.88;;;9.70;99.90;;;;;;5248208;28;20031;-67
2023/04/03 02:54:13;;;;;;;62.58;57.55;;;9.60;99.90;;;;;;5247013;28;20520;-67
2023/04/03 02:56:43;;;;;;;62.72;57.88;;;9.60;99.90;;;;;;5247975;28;20056;-73
2023/04/03 02:59:14;;;;;;;63.35;58.53;;;9.50;99.90;;;;;;5248230;28;20376;-72
2023/04/03 03:01:45;;;;;;;67.32;62.10;;;9.70;99.90;;;;;;5248091;28;20025;-72
2023/04/03 03:04:16;;;;;;;66.57;61.35;;;9.50;99.90;;;;;;5248028;28;20054;-71
2023/04/03 03:06:47;;;;;;;71.25;65.70;;;9.30;99.90;;;;;;5247101;28;20253;-72
2023/04/03 03:09:18;;;;;;;71.85;66.45;;;9.30;99.90;;;;;;5247907;28;20028;-72
2023/04/03 03:11:48;;;;;;;73.47;67.80;;;9.20;99.90;;;;;;5247774;28;20392;-72
2023/04/03 03:14:19;;;;;;;70.18;64.78;;;9.20;99.90;;;;;;5247908;28;20024;-72
2023/04/03 03:16:50;;;;;;;74.00;68.10;;;9.50;99.90;;;;;;5247862;28;20028;-72
2023/04/03 03:19:21;;;;;;;69.47;64.05;;;9.30;99.90;;;;;;5247766;28;20021;-72
2023/04/03 03:21:52;;;;;;;67.97;62.50;;;9.10;99.90;;;;;;5247675;28;20036;-73
2023/04/03 03:24:23;;;;;;;64.18;59.28;;;9.20;99.90;;;;;;5247521;28;20102;-72
2023/04/03 03:26:54;;;;;;;69.95;64.47;;;9.30;99.90;;;;;;5247487;28;20082;-72
2023/04/03 03:29:24;;;;;;;65.60;60.55;;;9.30;99.90;;;;;;5247620;28;20039;-72
2023/04/03 03:31:55;;;;;;;66.38;60.95;;;9.20;99.90;;;;;;5246206;28;20033;-73
2023/04/03 03:34:26;;;;;;;62.00;57.10;;;9.40;99.90;;;;;;5247674;28;20020;-72
2023/04/03 03:36:57;;;;;;;65.85;60.78;;;9.50;99.90;;;;;;5246376;28;20028;-73
2023/04/03 03:39:28;;;;;;;66.95;61.45;;;9.50;99.90;;;;;;5247692;28;20483;-72
2023/04/03 03:41:59;;;;;;;61.30;56.50;;;9.50;99.90;;;;;;5247664;28;20039;-73
2023/04/03 03:44:30;;;;;;;61.63;56.45;;;9.60;99.90;;;;;;5247586;28;20024;-72
2023/04/03 03:47:01;;;;;;;62.28;57.65;;;9.50;99.90;;;;;;5247216;28;20047;-72
2023/04/03 03:49:31;;;;;;;65.07;59.85;;;9.60;99.90;;;;;;5246355;28;20027;-72
2023/04/03 03:52:02;;;;;;;60.38;55.78;;;9.50;99.90;;;;;;5247401;28;20032;-73
2023/04/03 03:54:33;;;;;;;60.50;55.80;;;9.40;99.90;;;;;;5247052;28;20036;-72
2023/04/03 03:57:04;;;;;;;62.75;57.92;;;9.30;99.90;;;;;;5247462;28;20037;-72
2023/04/03 03:59:35;;;;;;;61.88;56.70;;;9.40;99.90;;;;;;5247268;28;20100;-72
2023/04/03 04:02:06;;;;;;;62.40;57.35;;;9.30;99.90;;;;;;5246139;28;20413;-73
2023/04/03 04:04:37;;;;;;;59.63;54.72;;;9.40;99.90;;;;;;5247228;28;20060;-72
2023/04/03 04:07:07;;;;;;;64.53;59.05;;;9.30;99.90;;;;;;5247153;28;20515;-73
2023/04/03 04:09:38;;;;;;;62.33;57.30;;;9.60;99.90;;;;;;5247025;28;20029;-72
2023/04/03 04:12:09;;;;;;;59.85;55.05;;;9.50;99.90;;;;;;5245837;28;20478;-68
2023/04/03 04:14:40;;;;;;;65.10;59.63;;;9.60;99.90;;;;;;5247083;28;20346;-72
2023/04/03 04:17:11;;;;;;;66.53;60.95;;;9.60;99.90;;;;;;5247225;28;20607;-73
2023/04/03 04:19:41;;;;;;;69.00;63.13;;;9.60;99.90;;;;;;5250778;28;20068;-69
2023/04/03 04:22:12;;;;;;;72.15;65.90;;;9.70;99.90;;;;;;5251182;28;20032;-68
2023/04/03 04:24:43;;;;;;;65.07;59.33;;;9.50;99.90;;;;;;5251154;28;20045;-73
2023/04/03 04:27:15;;;;;;;65.15;59.35;;;9.80;99.90;;;;;;5251022;28;20041;-72
2023/04/03 04:29:46;;;;;;;62.72;57.28;;;9.70;99.90;;;;;;5250902;28;20078;-72
2023/04/03 04:32:16;;;;;;;63.25;57.85;;;9.60;99.90;;;;;;5251002;28;20024;-72
2023/04/03 04:34:47;;;;;;;66.00;60.50;;;9.70;99.90;;;;;;5250980;28;20060;-72
2023/04/03 04:37:18;;;;;;;63.03;57.63;;;9.90;99.90;;;;;;5250939;28;20036;-72
2023/04/03 04:39:49;;;;;;;60.92;55.78;;;10.00;99.90;;;;;;5250961;28;20032;-72
2023/04/03 04:42:20;;;;;;;59.70;54.45;;;10.20;99.90;;;;;;5250581;28;20056;-72
2023/04/03 04:44:50;;;;;;;59.83;54.78;;;10.30;99.90;;;;;;5250595;28;20544;-72
2023/04/03 04:47:21;;;;;;;62.72;57.50;;;10.20;99.90;;;;;;5250569;28;20036;-73
2023/04/03 04:49:52;;;;;;;59.03;53.35;;;10.20;99.90;;;;;;5250685;28;20099;-72
2023/04/03 04:52:23;;;;;;;63.60;57.75;;;10.20;99.90;;;;;;5250747;28;20031;-72
2023/04/03 04:54:54;;;;;;;60.15;54.88;;;10.40;99.90;;;;;;5250645;28;20468;-71
2023/04/03 04:57:24;;;;;;;59.45;54.25;;;10.30;99.90;;;;;;5250593;28;20064;-73
2023/04/03 04:59:55;;;;;;;61.83;56.60;;;10.50;99.90;;;;;;5249238;28;20029;-73
2023/04/03 05:02:26;;;;;;;58.25;52.83;;;10.20;99.90;;;;;;5250414;28;20029;-72
2023/04/03 05:04:57;;;;;;;61.10;55.88;;;10.30;99.90;;;;;;5250452;28;20028;-72
2023/04/03 05:07:28;;;;;;;59.28;54.03;;;10.40;99.90;;;;;;5250216;28;20043;-73
2023/04/03 05:09:58;;;;;;;58.88;53.15;;;10.50;99.90;;;;;;5248935;28;20024;-72
2023/04/03 05:12:29;;;;;;;55.47;50.72;;;10.80;99.90;;;;;;5250222;28;20029;-73
2023/04/03 05:15:00;;;;;;;56.65;51.50;;;10.80;99.90;;;;;;5250217;28;20024;-73
2023/04/03 05:17:31;;;;;;;60.67;55.55;;;10.90;99.90;;;;;;5248930;28;20442;-73
2023/04/03 05:20:04;;;;;;;59.83;54.90;;;10.90;99.90;;;;;;5250229;28;20024;-73
2023/04/03 05:22:35;;;;;;;58.65;53.22;;;10.90;99.90;;;;;;5249989;28;20027;-73
2023/04/03 05:25:06;;;;;;;61.47;55.95;;;11.00;99.90;;;;;;5249938;28;20036;-72
2023/04/03 05:27:37;;;;;;;56.75;51.50;;;11.10;99.90;;;;;;5249800;28;20145;-73
2023/04/03 05:30:08;;;;;;;58.75;53.38;;;11.20;99.90;;;;;;5249035;28;20677;-72
2023/04/03 05:32:39;;;;;;;61.80;56.35;;;11.40;99.90;;;;;;5249810;28;20141;-73
2023/04/03 05:35:10;;;;;;;62.53;56.95;;;11.60;99.90;;;;;;5249695;28;20038;-73
2023/04/03 05:37:41;;;;;;;58.45;53.38;;;11.70;99.90;;;;;;5249821;28;20103;-73
2023/04/03 05:40:12;;;;;;;66.82;60.65;;;12.30;99.90;;;;;;5249626;28;20101;-73
2023/04/03 05:42:44;;;;;;;67.78;62.00;;;12.70;99.90;;;;;;5249554;28;20036;-72
2023/04/03 05:45:14;;;;;;;65.95;60.22;;;12.90;99.90;;;;;;5249478;28;20032;-73
2023/04/03 05:47:45;;;;;;;72.80;66.72;;;13.00;99.90;;;;;;5249507;28;20028;-73
2023/04/03 05:50:16;;;;;;;83.80;76.97;;;13.10;99.90;;;;;;5249497;28;20044;-73
2023/04/03 05:52:49;;;;;;;82.65;75.68;;;12.90;99.90;;;;;;5249385;28;20586;-73
2023/04/03 05:55:20;;;;;;;84.32;77.07;;;12.80;99.90;;;;;;5249103;28;20044;-73
2023/04/03 05:57:51;;;;;;;77.22;70.60;;;12.70;99.90;;;;;;5247811;28;20433;-67
2023/04/03 06:00:22;;;;;;;76.43;69.80;;;12.70;99.90;;;;;;5249323;28;20357;-67
2023/04/03 06:02:53;;;;;;;75.47;68.72;;;12.80;99.90;;;;;;5249242;28;20077;-71
2023/04/03 06:05:24;;;;;;;78.78;72.13;;;12.80;99.90;;;;;;5249061;28;20056;-71
2023/04/03 06:07:55;;;;;;;77.45;70.53;;;12.90;99.90;;;;;;5249151;28;20020;-73
2023/04/03 06:10:26;;;;;;;77.50;70.68;;;12.90;99.90;;;;;;5249370;28;20107;-73
2023/04/03 06:12:57;;;;;;;79.10;72.20;;;12.90;99.90;;;;;;5248994;28;20536;-73
2023/04/03 06:15:28;;;;;;;74.82;68.03;;;12.90;99.90;;;;;;5248955;28;20056;-72
2023/04/03 06:17:59;;;;;;;73.10;66.45;;;12.90;99.90;;;;;;5248928;28;20024;-74
2023/04/03 06:20:31;;;;;;;69.47;63.38;;;12.90;99.90;;;;;;5248767;28;20350;-73
2023/04/03 06:23:02;;;;;;;73.07;66.60;;;13.10;99.90;;;;;;5248722;28;20024;-73
2023/04/03 06:25:33;;;;;;;70.57;64.57;;;13.20;99.90;;;;;;5248589;28;20032;-67
2023/04/03 06:28:04;;;;;;;67.60;61.92;;;13.20;99.90;;;;;;5248637;28;20029;-73
2023/04/03 06:30:35;;;;;;;66.47;60.95;;;13.10;99.90;;;;;;5248802;28;20036;-73
2023/04/03 06:33:05;;;;;;;64.32;59.13;;;13.20;99.90;;;;;;5248414;28;20146;-73
2023/04/03 06:35:38;;;;;;;70.93;65.32;;;13.20;99.90;;;;;;5248514;28;20028;-67
2023/04/03 06:38:09;;;;;;;65.78;60.30;;;13.30;99.90;;;;;;5248098;28;20032;-73
2023/04/03 06:40:40;;;;;;;65.22;60.13;;;13.30;99.90;;;;;;5248128;28;20113;-67
2023/04/03 06:43:11;;;;;;;63.42;58.25;;;13.40;99.90;;;;;;5248207;28;20468;-74
2023/04/03 06:45:42;;;;;;;63.63;58.45;;;13.50;99.90;;;;;;5248375;28;20055;-73
2023/04/03 06:48:13;;;;;;;62.03;57.03;;;13.40;99.90;;;;;;5246807;28;20067;-73
2023/04/03 06:50:44;;;;;;;61.28;56.72;;;13.50;99.90;;;;;;5248107;28;20033;-73
2023/04/03 06:53:15;;;;;;;63.50;58.50;;;13.50;99.90;;;;;;5248062;28;20379;-73
2023/04/03 06:55:47;;;;;;;59.67;55.17;;;13.50;99.90;;;;;;5247715;28;20080;-73
2023/04/03 06:58:18;;;;;;;60.20;55.63;;;13.50;99.90;;;;;;5247927;28;20048;-71
2023/04/03 07:00:48;;;;;;;70.60;65.53;;;13.60;99.90;;;;;;5247942;28;20059;-73
2023/04/03 07:03:19;;;;;;;63.85;58.85;;;13.60;99.90;;;;;;5247848;28;20532;-72
2023/04/03 07:05:50;;;;;;;112.85;97.18;;;13.70;99.90;;;;;;5248063;28;20032;-71
2023/04/03 07:08:23;;;;;;;68.72;63.40;;;13.60;99.90;;;;;;5247767;28;20056;-72
2023/04/03 07:10:53;;;;;;;71.22;65.82;;;13.70;99.90;;;;;;5247442;28;20048;-71
2023/04/03 07:13:25;;;;;;;72.18;66.28;;;13.70;99.90;;;;;;5247709;28;20057;-71
2023/04/03 07:15:56;;;;;;;71.32;63.47;;;13.90;99.90;;;;;;5247693;28;20028;-72
2023/04/03 07:20:09;;;;;;;72.93;66.28;;;14.10;99.90;;;;;;5244505;28;20456;-71
2023/04/03 07:22:39;;;;;;;67.45;62.05;;;14.10;99.90;;;;;;5244485;28;20109;-69
2023/04/03 07:25:10;;;;;;;69.60;63.88;;;14.00;99.90;;;;;;5244376;28;20107;-71
2023/04/03 07:27:41;;;;;;;66.88;61.60;;;14.00;99.90;;;;;;5223955;28;20014;-71
2023/04/03 07:30:13;;;;;;;115.18;105.22;;;14.00;99.90;;;;;;5223771;28;20027;-71
2023/04/03 07:32:44;;;;;;;99.93;91.00;;;13.80;99.90;;;;;;5223576;28;20056;-72
2023/04/03 07:35:16;;;;;;;71.07;65.45;;;14.00;99.90;;;;;;5223535;28;20048;-73
2023/04/03 07:37:47;;;;;;;66.07;61.28;;;14.20;99.90;;;;;;5222192;28;20056;-70
2023/04/03 07:40:18;;;;;;;69.72;64.10;;;14.10;99.90;;;;;;5213683;28;20489;-72
2023/04/03 07:42:50;;;;;;;67.78;62.75;;;14.20;99.90;;;;;;5202678;28;20543;-76
2023/04/03 07:45:22;;;;;;;61.17;56.50;;;14.40;99.90;;;;;;5202553;28;20049;-67
2023/04/03 07:47:53;;;;;;;61.95;57.42;;;14.20;99.90;;;;;;5202306;28;20030;-68
2023/04/03 07:50:25;;;;;;;73.63;68.43;;;14.60;99.90;;;;;;5202545;28;20037;-73
2023/04/03 07:52:57;;;;;;;100.07;93.80;;;14.70;99.90;;;;;;5202621;28;20054;-67
2023/04/03 07:55:28;;;;;;;66.32;61.45;;;15.20;99.90;;;;;;5202422;28;20032;-73
2023/04/03 07:57:59;;;;;;;54.13;50.35;;;15.50;99.90;;;;;;5202371;28;20381;-73
2023/04/03 08:00:30;;;;;;;53.35;49.47;;;15.40;99.90;;;;;;5202537;28;20041;-67
2023/04/03 08:03:01;;;;;;;49.63;45.83;;;15.80;99.90;;;;;;5210627;28;20423;-67
2023/04/03 08:05:37;;;;;;;50.47;46.70;;;15.90;99.90;;;;;;5222662;28;20029;-73
2023/04/03 08:08:12;;;;;;;48.45;45.35;;;15.90;99.90;;;;;;5223198;28;20029;-73
2023/04/03 08:10:43;;;;;;;51.25;47.85;;;15.60;99.90;;;;;;5222884;28;20025;-71
2023/04/03 08:13:15;;;;;;;54.55;50.88;;;15.70;99.90;;;;;;5223023;28;20104;-77
2023/04/03 08:15:56;;;;;;;54.20;50.53;;;16.20;99.90;;;;;;5222856;28;20025;-76
2023/04/03 08:18:31;;;;;;;57.70;53.97;;;15.70;99.90;;;;;;5222556;28;20047;-77
2023/04/03 08:21:08;;;;;;;57.55;53.85;;;15.70;99.90;;;;;;5222828;28;20051;-78
2023/04/03 08:23:42;;;;;;;60.58;56.72;;;15.80;99.90;;;;;;5222683;28;20022;-76
2023/04/03 08:26:21;;;;;;;61.72;57.78;;;15.70;99.90;;;;;;5222650;28;20373;-77
2023/04/03 08:28:57;;;;;;;61.67;57.75;;;15.70;99.90;;;;;;5222645;28;20067;-76
2023/04/03 08:31:31;;;;;;;59.00;55.03;;;15.50;99.90;;;;;;5207790;28;20135;-67
2023/04/03 08:34:02;;;;;;;63.60;59.60;;;15.70;99.90;;;;;;5207616;28;20096;-75
2023/04/03 08:36:33;;;;;;;58.17;54.47;;;15.40;99.90;;;;;;5208724;28;20039;-68
2023/04/03 08:39:04;;;;;;;66.03;61.45;;;15.60;99.90;;;;;;5208609;28;20038;-76
2023/04/03 08:41:40;;;;;;;59.33;55.47;;;15.60;99.90;;;;;;5208596;28;20025;-68
2023/04/03 08:44:30;;;;;;;62.00;58.28;;;15.60;99.90;;;;;;5208623;28;20640;-76
2023/04/03 08:47:27;;;;;;;77.07;71.70;;;15.80;99.90;;;;;;5208703;28;20029;-68
2023/04/03 08:50:19;;;;;;;79.47;74.68;;;15.60;99.90;;;;;;5208425;28;20091;-70
2023/04/03 08:53:00;;;;;;;67.95;63.58;;;15.80;99.90;;;;;;5208423;28;20524;-68
2023/04/03 08:56:04;;;;;;;66.78;62.25;;;15.80;99.90;;;;;;5208432;28;20021;-67
2023/04/03 08:59:09;;;;;;;68.85;64.00;;;16.00;99.90;;;;;;5207585;28;20464;-68
2023/04/03 09:01:43;;;;;;;74.07;69.47;;;15.90;99.90;;;;;;5204705;28;20025;-69
2023/04/03 09:04:18;;;;;;;69.68;64.68;;;15.90;99.90;;;;;;5191754;28;20026;-76
2023/04/03 09:06:54;;;;;;;71.53;66.22;;;15.30;99.90;;;;;;5187653;28;20030;-76
2023/04/03 09:09:40;;;;;;;72.13;66.63;;;15.00;99.90;;;;;;5187455;28;20029;-72
2023/04/03 09:12:25;;;;;;;84.95;78.63;;;14.60;99.90;;;;;;5187511;28;20105;-71
2023/04/03 09:15:14;;;;;;;87.68;81.50;;;14.60;99.90;;;;;;5187608;28;20101;-74
2023/04/03 09:17:45;;;;;;;89.35;82.32;;;14.50;99.90;;;;;;5187208;28;20018;-75
2023/04/03 09:20:34;;;;;;;91.32;84.85;;;14.50;99.90;;;;;;5187484;28;20045;-68
2023/04/03 09:23:37;;;;;;;91.57;85.18;;;14.90;99.90;;;;;;5187785;28;20436;-75
2023/04/03 09:26:16;;;;;;;90.70;83.82;;;14.60;99.90;;;;;;5180126;28;20088;-70
2023/04/03 09:28:47;;;;;;;85.63;79.07;;;14.50;99.90;;;;;;5187281;28;20113;-76
2023/04/03 09:31:23;;;;;;;85.78;79.68;;;14.70;99.90;;;;;;5187251;28;20029;-74
2023/04/03 09:34:02;;;;;;;84.07;78.05;;;14.60;99.90;;;;;;5185945;28;20041;-68
2023/04/03 09:36:48;;;;;;;84.22;78.53;;;14.80;99.90;;;;;;5185992;28;20115;-75
2023/04/03 09:39:22;;;;;;;82.47;76.70;;;14.90;99.90;;;;;;5187064;28;20428;-75
2023/04/03 09:42:01;;;;;;;76.07;70.75;;;15.20;99.90;;;;;;5186032;28;20030;-68
2023/04/03 09:44:35;;;;;;;79.53;73.88;;;15.30;99.90;;;;;;5187104;28;20033;-68
2023/04/03 09:47:18;;;;;;;75.10;69.47;;;15.60;99.90;;;;;;5185504;28;20029;-68
2023/04/03 09:49:50;;;;;;;67.97;63.00;;;15.60;99.90;;;;;;5186747;28;20030;-69
2023/04/03 09:52:25;;;;;;;73.10;68.30;;;16.00;99.90;;;;;;5186737;28;20061;-76
2023/04/03 09:55:07;;;;;;;82.75;77.18;;;15.90;99.90;;;;;;5186747;28;20106;-70
2023/04/03 09:57:38;;;;;;;81.25;75.95;;;15.70;99.90;;;;;;5186604;28;20116;-68
2023/04/03 10:00:39;;;;;;;81.38;75.68;;;15.90;99.90;;;;;;5185872;28;20500;-74
2023/04/03 10:03:35;;;;;;;92.85;86.85;;;16.20;99.90;;;;;;5185995;28;20377;-67
2023/04/03 10:06:23;;;;;;;83.65;78.07;;;16.50;99.90;;;;;;5186267;28;20030;-75
2023/04/03 10:09:13;;;;;;;91.35;85.78;;;16.00;99.90;;;;;;5186547;28;20037;-67
2023/04/03 10:12:11;;;;;;;99.50;93.50;;;16.10;99.90;;;;;;5186305;28;20037;-68
2023/04/03 10:15:03;;;;;;;104.68;98.15;;;16.10;99.90;;;;;;5183980;28;20026;-67
2023/04/03 10:17:46;;;;;;;107.18;100.45;;;16.20;99.90;;;;;;5186194;28;20026;-67
2023/04/03 10:20:43;;;;;;;111.93;105.25;;;16.40;99.90;;;;;;5186222;28;20057;-71
2023/04/03 10:23:38;;;;;;;103.82;97.55;;;16.10;99.90;;;;;;5186123;28;20041;-67
2023/04/03 10:26:28;;;;;;;108.13;101.40;;;15.60;99.90;;;;;;5186156;28;20030;-74
2023/04/03 10:29:08;;;;;;;113.57;106.60;;;15.70;99.90;;;;;;5186138;28;20045;-68
2023/04/03 10:32:24;;;;;;;116.90;109.80;;;15.50;99.90;;;;;;5186104;28;20260;-68
2023/04/03 10:35:33;;;;;;;111.60;104.80;;;15.80;99.90;;;;;;5180696;28;20037;-68
2023/04/03 10:38:18;;;;;;;108.43;101.88;;;16.10;99.90;;;;;;5186044;28;20030;-71
2023/04/03 10:41:03;;;;;;;104.70;97.75;;;16.30;99.90;;;;;;5186079;28;20041;-75
2023/04/03 10:43:43;;;;;;;103.03;96.28;;;16.60;99.90;;;;;;5185939;28;20512;-68
2023/04/03 10:46:23;;;;;;;;;;;16.80;99.90;;;;;;5201566;28;20466;-75
2023/04/03 10:49:14;;;;;;;98.43;92.53;;;16.70;99.90;;;;;;5185869;28;19964;-70
2023/04/03 10:51:51;;;;;;;96.43;90.57;;;16.50;99.90;;;;;;5185738;28;20453;-67
2023/04/03 10:54:34;;;;;;;92.57;87.20;;;16.10;99.90;;;;;;5185474;28;20017;-75
2023/04/03 10:57:08;;;;;;;96.45;90.60;;;16.10;99.90;;;;;;5184576;28;20045;-75
2023/04/03 10:59:56;;;;;;;93.47;87.50;;;16.10;99.90;;;;;;5185734;28;20468;-75
2023/04/03 11:02:41;;;;;;;100.15;94.18;;;16.20;99.90;;;;;;5185609;28;20022;-75
2023/04/03 11:05:18;;;;;;;89.88;84.60;;;16.10;99.90;;;;;;5185669;28;20083;-67
2023/04/03 11:07:53;;;;;;;85.68;80.63;;;16.80;99.90;;;;;;5185469;28;20061;-75
2023/04/03 11:10:49;;;;;;;77.57;72.90;;;17.10;99.90;;;;;;5185349;28;20489;-75
2023/04/03 11:13:49;;;;;;;77.47;73.05;;;17.30;99.90;;;;;;5185215;28;20386;-75
2023/04/03 11:16:26;;;;;;;72.97;68.72;;;17.00;99.90;;;;;;5199772;28;20026;-75
2023/04/03 11:19:14;;;;;;;62.22;58.40;;;17.00;99.90;;;;;;5205492;28;20057;-75
2023/04/03 11:21:56;;;;;;;65.40;61.35;;;16.90;99.90;;;;;;5205688;28;20028;-74
2023/04/03 11:24:31;;;;;;;72.63;68.53;;;16.80;99.90;;;;;;5192859;28;20030;-74
2023/04/03 11:27:05;;;;;;;69.97;66.07;;;16.70;99.90;;;;;;5184772;28;20088;-68
2023/04/03 11:29:40;;;;;;;66.90;63.05;;;16.70;99.90;;;;;;5187339;28;20038;-75
2023/04/03 11:32:55;;;;;;;75.65;71.45;;;16.70;99.90;;;;;;5184637;28;20022;-74
2023/04/03 11:35:26;;;;;;;79.68;75.20;;;16.60;99.90;;;;;;5178763;28;20104;-69
2023/04/03 11:38:00;;;;;;;82.13;77.60;;;16.70;99.90;;;;;;5204257;28;20351;-67
2023/04/03 11:40:36;;;;;;;82.63;78.20;;;16.60;99.90;;;;;;5204847;28;20030;-68
2023/04/03 11:43:21;;;;;;;81.90;77.32;;;16.60;99.90;;;;;;5205412;28;20030;-75
2023/04/03 11:46:01;;;;;;;82.93;78.25;;;16.40;99.90;;;;;;5199080;28;20025;-68
2023/04/03 11:48:34;;;;;;;87.15;82.20;;;16.20;99.90;;;;;;5193318;28;20112;-75
2023/04/03 11:51:17;;;;;;;87.28;82.32;;;16.40;99.90;;;;;;5205376;28;20025;-74
2023/04/03 11:53:49;;;;;;;90.30;85.18;;;16.00;99.90;;;;;;5164783;28;20030;-75
2023/04/03 11:56:26;;;;;;;90.50;85.65;;;16.60;99.90;;;;;;5186343;28;20025;-74
2023/04/03 11:59:13;;;;;;;87.93;83.07;;;16.70;99.90;;;;;;5204797;28;20496;-75
2023/04/03 12:01:48;;;;;;;82.97;78.43;;;16.70;99.90;;;;;;5196670;28;20026;-75
2023/04/03 12:04:25;;;;;;;81.18;76.70;;;16.80;99.90;;;;;;5185105;28;20033;-68
2023/04/03 12:07:18;;;;;;;76.28;72.18;;;16.50;99.90;;;;;;5194177;28;20041;-74
2023/04/03 12:09:49;;;;;;;85.68;80.65;;;16.90;99.90;;;;;;5209293;28;20477;-74
2023/04/03 12:12:30;;;;;;;84.15;79.38;;;16.50;99.90;;;;;;5205899;28;20030;-75
2023/04/03 12:15:25;;;;;;;81.68;77.20;;;16.30;99.90;;;;;;5209151;28;20029;-76
2023/04/03 12:17:55;;;;;;;74.53;70.50;;;16.50;99.90;;;;;;5208767;28;20041;-72
2023/04/03 12:20:48;;;;;;;80.30;75.78;;;16.30;99.90;;;;;;5209149;28;20026;-74
2023/04/03 12:23:38;;;;;;;86.30;81.13;;;16.90;99.90;;;;;;5194414;28;20504;-75
2023/04/03 12:26:19;;;;;;;90.03;84.78;;;16.80;99.90;;;;;;5188463;28;20022;-73
2023/04/03 12:28:53;;;;;;;82.90;78.40;;;16.90;99.90;;;;;;5188450;28;20025;-73
2023/04/03 12:31:36;;;;;;;77.95;73.47;;;17.00;99.90;;;;;;5200012;28;20033;-74
2023/04/03 12:34:26;;;;;;;72.63;68.53;;;17.30;99.90;;;;;;5208843;28;20172;-73
2023/04/03 12:37:09;;;;;;;76.80;72.38;;;17.50;99.90;;;;;;5183095;28;20045;-74
2023/04/03 12:39:58;;;;;;;84.53;79.88;;;17.10;99.90;;;;;;5203067;28;20038;-72
2023/04/03 12:42:56;;;;;;;83.23;78.73;;;17.30;99.90;;;;;;5188116;28;20018;-73
2023/04/03 12:45:27;;;;;;;82.43;78.00;;;17.30;99.90;;;;;;5203096;28;20571;-67
2023/04/03 12:48:02;;;;;;;84.97;80.40;;;17.40;99.90;;;;;;5187899;28;20041;-70
2023/04/03 12:50:33;;;;;;;80.00;75.57;;;17.40;99.90;;;;;;5187926;28;20026;-74
2023/04/03 12:53:11;;;;;;;74.80;70.55;;;16.90;99.90;;;;;;5187814;28;20026;-75
2023/04/03 12:55:42;;;;;;;81.80;77.30;;;16.50;99.90;;;;;;5188150;28;20040;-75
2023/04/03 12:58:26;;;;;;;74.22;70.05;;;16.30;99.90;;;;;;5187808;28;20026;-66
2023/04/03 13:01:01;;;;;;;75.97;71.38;;;16.00;99.90;;;;;;5186590;28;20133;-76
2023/04/03 13:03:42;;;;;;;73.43;69.20;;;15.90;99.90;;;;;;5187676;28;20089;-74
2023/04/03 13:06:23;;;;;;;79.47;74.93;;;16.20;99.90;;;;;;5188055;28;20033;-74
2023/04/03 13:08:57;;;;;;;80.95;76.20;;;15.90;99.90;;;;;;5187802;28;20026;-74
2023/04/03 13:11:37;;;;;;;86.32;81.18;;;16.00;99.90;;;;;;5187256;28;20041;-77